Time;durP1;ratioP1;P1;durP2;ratioP2;P2;SDS_P1;SDS_P2;PMS_P1;PMS_P2;Temp;Humidity;BMP_temperature;BMP_pressure;BME280_temperature;BME280_humidity;BME280_pressure;Samples;Min_cycle;Max_cycle;Signal;HPM_P1;HPM_P2
2022/07/23 00:00:39;;;;;;;;;24.67;24.00;;;;;22.64;65.11;101316.72;5019218;28;46465;-65
2022/07/23 00:03:05;;;;;;;;;25.67;22.67;;;;;22.83;64.19;101336.75;5019303;28;45871;-65
2022/07/23 00:05:30;;;;;;;;;29.00;26.33;;;;;22.82;64.29;101325.03;5019586;28;45340;-66
2022/07/23 00:07:56;;;;;;;;;26.67;25.00;;;;;22.85;64.31;101302.97;5019194;28;45218;-66
2022/07/23 00:10:21;;;;;;;;;29.67;23.67;;;;;22.89;63.92;101314.22;5017534;28;47762;-66
2022/07/23 00:12:46;;;;;;;;;22.00;21.00;;;;;23.02;63.16;101330.44;5034335;28;46184;-66
2022/07/23 00:15:12;;;;;;;;;27.00;24.67;;;;;22.98;63.37;101326.50;5018919;28;45276;-67
2022/07/23 00:17:37;;;;;;;;;28.67;25.67;;;;;23.03;63.36;101327.53;5034320;28;45444;-66
2022/07/23 00:20:03;;;;;;;;;26.00;26.00;;;;;23.04;62.95;101317.53;5019037;28;45586;-66
2022/07/23 00:22:29;;;;;;;;;29.33;29.33;;;;;23.11;63.14;101334.59;5034379;28;45265;-66
2022/07/23 00:24:55;;;;;;;;;28.33;24.67;;;;;23.13;63.29;101326.25;5018989;28;45252;-66
2022/07/23 00:27:21;;;;;;;;;34.67;29.00;;;;;23.10;62.70;101324.81;5019038;28;45549;-66
2022/07/23 00:29:47;;;;;;;;;26.00;25.00;;;;;23.10;62.96;101311.25;5018736;28;45590;-66
2022/07/23 00:32:12;;;;;;;;;26.67;24.00;;;;;23.06;62.74;101296.44;5018832;28;45352;-65
2022/07/23 00:34:37;;;;;;;;;26.33;23.33;;;;;23.23;62.32;101329.38;5019098;28;45504;-65
2022/07/23 00:37:03;;;;;;;;;26.33;24.00;;;;;23.17;62.11;101317.47;5018963;28;45542;-65
2022/07/23 00:39:28;;;;;;;;;26.00;23.33;;;;;22.84;61.94;101252.50;5017423;28;46226;-65
2022/07/23 00:41:53;;;;;;;;;27.00;24.33;;;;;23.23;62.08;101315.81;5018607;28;45544;-66
2022/07/23 00:44:20;;;;;;;;;26.33;24.67;;;;;23.25;62.00;101319.97;5018957;28;45251;-65
2022/07/23 00:46:55;;;;;;;;;26.00;25.00;;;;;23.16;62.00;101304.13;5019123;28;45593;-67
2022/07/23 00:49:21;;;;;;;;;19.00;19.00;;;;;23.23;61.88;101322.06;5018477;28;46427;-65
2022/07/23 00:51:48;;;;;;;;;22.00;21.33;;;;;23.19;61.80;101314.53;5018541;28;45272;-66
2022/07/23 00:54:18;;;;;;;;;26.33;23.33;;;;;23.22;62.40;101316.81;5018624;28;45173;-66
2022/07/23 00:56:45;;;;;;;;;26.67;25.67;;;;;23.01;61.99;101288.09;5018568;28;45383;-65
2022/07/23 00:59:11;;;;;;;;;26.33;24.00;;;;;23.12;62.34;101309.16;5017139;28;47431;-66
2022/07/23 01:01:37;;;;;;;;;22.33;20.67;;;;;23.13;61.97;101318.13;5018495;28;45259;-66
2022/07/23 01:04:02;;;;;;;;;27.67;25.00;;;;;23.10;62.46;101315.84;5034088;28;45296;-66
2022/07/23 01:06:31;;;;;;;;;21.67;20.67;;;;;22.92;62.70;101282.06;5019066;28;45197;-66
2022/07/23 01:08:56;;;;;;;;;27.00;23.67;;;;;23.03;62.32;101302.31;5018561;28;46758;-66
2022/07/23 01:11:23;;;;;;;;;25.67;24.67;;;;;23.14;62.94;101317.91;5033800;28;45391;-66
2022/07/23 01:13:49;;;;;;;;;24.33;23.33;;;;;23.01;63.08;101296.22;5018569;28;45434;-65
2022/07/23 01:16:14;;;;;;;;;27.00;25.67;;;;;23.16;63.18;101321.22;5017514;28;45409;-66
2022/07/23 01:18:42;;;;;;;;;33.67;30.33;;;;;23.17;63.84;101322.06;5018401;28;46178;-67
2022/07/23 01:21:12;;;;;;;;;31.67;29.33;;;;;23.17;64.30;101322.91;5018564;28;45220;-66
2022/07/23 01:23:38;;;;;;;;;33.33;31.33;;;;;23.21;64.46;101324.13;5018584;28;45359;-65
2022/07/23 01:26:04;;;;;;;;;33.67;32.67;;;;;23.21;64.82;101318.72;5018462;28;45469;-65
2022/07/23 01:28:30;;;;;;;;;36.33;31.33;;;;;23.24;64.64;101323.72;5018295;28;45429;-66
2022/07/23 01:30:55;;;;;;;;;36.00;34.00;;;;;23.25;64.44;101319.13;5016894;28;45394;-65
2022/07/23 01:33:21;;;;;;;;;35.33;32.00;;;;;23.20;65.32;101299.94;5018449;28;45836;-65
2022/07/23 01:35:46;;;;;;;;;31.33;30.67;;;;;23.25;64.88;101317.25;5018172;28;45148;-64
2022/07/23 01:38:11;;;;;;;;;39.00;34.00;;;;;23.25;65.46;101314.53;5016349;28;47826;-66
2022/07/23 01:40:37;;;;;;;;;39.33;34.00;;;;;23.20;65.12;101306.19;5018119;28;45193;-66
2022/07/23 01:43:02;;;;;;;;;32.00;31.00;;;;;23.25;65.50;101313.72;5018355;28;45799;-66
2022/07/23 01:45:28;;;;;;;;;36.67;33.67;;;;;23.12;65.61;101298.28;5018429;28;45273;-64
2022/07/23 01:47:53;;;;;;;;;37.33;29.67;;;;;23.04;65.81;101284.97;5017479;28;46140;-65
2022/07/23 01:50:19;;;;;;;;;38.33;34.00;;;;;23.21;65.88;101307.03;5017777;28;45612;-65
2022/07/23 01:52:44;;;;;;;;;43.00;33.67;;;;;23.23;65.51;101311.22;5033232;28;45291;-66
2022/07/23 01:55:11;;;;;;;;;35.00;33.67;;;;;23.23;66.14;101310.38;5017823;28;45578;-66
2022/07/23 01:57:37;;;;;;;;;35.33;34.00;;;;;23.21;66.40;101312.44;5032645;28;46424;-65
2022/07/23 02:00:03;;;;;;;;;37.67;32.67;;;;;23.16;66.51;101304.97;5032901;28;45361;-65
2022/07/23 02:02:28;;;;;;;;;35.33;33.33;;;;;23.03;66.44;101300.41;5017823;28;45407;-65
2022/07/23 02:04:54;;;;;;;;;29.67;28.67;;;;;23.02;66.68;101292.47;5017999;28;45359;-65
2022/07/23 02:07:19;;;;;;;;;39.67;33.67;;;;;22.95;66.99;101287.06;5016702;28;47534;-65
2022/07/23 02:09:44;;;;;;;;;41.33;33.67;;;;;23.02;66.85;101308.75;5018410;28;45470;-65
2022/07/23 02:12:10;;;;;;;;;36.00;31.67;;;;;22.97;66.79;101297.69;5016355;28;45321;-66
2022/07/23 02:14:35;;;;;;;;;35.67;32.00;;;;;23.05;66.41;101305.63;5017483;28;45460;-66
2022/07/23 02:17:00;;;;;;;;;32.00;31.67;;;;;23.05;66.43;101308.34;5016877;28;46511;-66
2022/07/23 02:19:26;;;;;;;;;43.33;34.67;;;;;22.94;66.66;101290.00;5017136;28;45507;-65
2022/07/23 02:21:52;;;;;;;;;34.67;32.67;;;;;23.07;66.71;101319.81;5015516;28;45341;-65
2022/07/23 02:24:17;;;;;;;;;39.67;34.00;;;;;23.05;66.40;101311.06;5017663;28;45221;-65
2022/07/23 02:26:43;;;;;;;;;40.67;34.67;;;;;23.10;66.38;101313.13;5032558;28;46468;-66
2022/07/23 02:29:08;;;;;;;;;34.67;32.00;;;;;22.88;66.13;101278.13;5017064;28;45229;-66
2022/07/23 02:31:34;;;;;;;;;36.33;33.00;;;;;23.09;65.90;101308.75;5017289;28;45546;-66
2022/07/23 02:34:00;;;;;;;;;37.33;33.33;;;;;23.11;65.94;101318.34;5017335;28;45311;-66
2022/07/23 02:36:25;;;;;;;;;40.67;32.00;;;;;23.11;65.97;101323.75;5016666;28;45892;-66
2022/07/23 02:38:51;;;;;;;;;48.00;36.67;;;;;23.05;65.90;101321.91;5016672;28;45569;-67
2022/07/23 02:41:16;;;;;;;;;45.67;36.33;;;;;22.75;66.02;101270.81;5015569;28;45610;-65
2022/07/23 02:43:41;;;;;;;;;40.00;34.67;;;;;23.11;65.95;101322.94;5017129;28;45320;-65
2022/07/23 02:46:07;;;;;;;;;32.67;31.33;;;;;22.81;65.78;101290.81;5016413;28;46762;-66
2022/07/23 02:48:33;;;;;;;;;26.33;26.00;;;;;22.87;65.79;101305.47;5016193;28;45339;-66
2022/07/23 02:50:58;;;;;;;;;37.00;34.00;;;;;23.00;66.18;101324.41;5016701;28;45332;-66
2022/07/23 02:53:24;;;;;;;;;32.00;31.00;;;;;23.00;65.44;101327.09;5016863;28;45467;-66
2022/07/23 02:55:49;;;;;;;;;31.33;28.67;;;;;22.95;65.18;101324.19;5016262;28;45682;-65
2022/07/23 02:58:14;;;;;;;;;32.33;26.67;;;;;22.43;65.31;101239.19;5016303;28;45370;-64
2022/07/23 03:00:40;;;;;;;;;28.33;24.67;;;;;22.82;65.07;101308.78;5016578;28;45835;-66
2022/07/23 03:03:06;;;;;;;;;33.67;28.33;;;;;22.81;65.30;101333.34;5015934;28;45481;-66
2022/07/23 03:05:32;;;;;;;;;30.33;27.00;;;;;22.60;65.35;101315.44;5014582;28;46780;-65
2022/07/23 03:07:57;;;;;;;;;26.00;25.67;;;;;22.75;65.20;101346.72;5016168;28;45153;-66
2022/07/23 03:10:22;;;;;;;;;27.00;26.00;;;;;22.68;65.25;101335.06;5016418;28;45290;-65
2022/07/23 03:12:48;;;;;;;;;28.00;24.00;;;;;22.68;64.76;101345.91;5031791;28;45520;-65
2022/07/23 03:15:13;;;;;;;;;26.33;24.33;;;;;22.69;64.88;101354.84;5016212;28;45599;-66
2022/07/23 03:17:38;;;;;;;;;34.67;32.00;;;;;22.68;65.05;101351.31;5014782;28;45268;-66
2022/07/23 03:20:04;;;;;;;;;35.67;31.33;;;;;22.61;65.04;101336.06;5031492;28;45271;-65
2022/07/23 03:22:30;;;;;;;;;32.67;27.67;;;;;22.50;65.34;101318.59;5016502;28;45476;-66
2022/07/23 03:24:55;;;;;;;;;30.67;28.00;;;;;22.50;65.64;101307.75;5016090;28;45245;-65
2022/07/23 03:27:23;;;;;;;;;32.00;28.67;;;;;22.71;66.13;101348.19;5016218;28;45570;-66
2022/07/23 03:29:50;;;;;;;;;33.00;29.67;;;;;22.64;65.60;101336.53;5016614;28;45403;-66
2022/07/23 03:32:15;;;;;;;;;39.33;34.00;;;;;22.66;66.39;101361.53;5016482;28;45502;-65
2022/07/23 03:34:40;;;;;;;;;34.00;29.00;;;;;22.61;66.68;101364.00;5016171;28;46004;-66
2022/07/23 03:37:06;;;;;;;;;38.33;34.00;;;;;22.57;66.52;101360.06;5016011;28;45413;-66
2022/07/23 03:39:31;;;;;;;;;32.00;28.00;;;;;22.58;66.76;101350.88;5016217;28;45240;-66
2022/07/23 03:41:57;;;;;;;;;32.67;31.33;;;;;22.62;66.25;101351.28;5016392;28;45522;-65
2022/07/23 03:44:22;;;;;;;;;37.67;33.00;;;;;22.58;66.29;101350.06;5014692;28;48439;-65
2022/07/23 03:46:47;;;;;;;;;32.33;31.33;;;;;22.16;66.02;101282.50;5015654;28;45497;-66
2022/07/23 03:49:13;;;;;;;;;34.00;30.67;;;;;22.56;66.24;101341.28;5016011;28;45167;-66
2022/07/23 03:51:38;;;;;;;;;33.00;31.00;;;;;22.69;66.43;101361.13;5016336;28;45219;-65
2022/07/23 03:54:04;;;;;;;;;29.33;29.33;;;;;22.72;66.33;101371.53;5030991;28;46463;-65
2022/07/23 03:56:29;;;;;;;;;28.67;27.67;;;;;22.72;65.79;101359.84;5015643;28;45256;-65
2022/07/23 03:58:54;;;;;;;;;31.33;30.00;;;;;22.70;65.91;101370.91;5014557;28;45416;-66
2022/07/23 04:01:20;;;;;;;;;28.33;26.33;;;;;22.70;65.75;101365.50;5016211;28;45246;-65
2022/07/23 04:03:46;;;;;;;;;30.00;28.67;;;;;22.74;65.66;101372.16;5015589;28;45352;-65
2022/07/23 04:06:12;;;;;;;;;28.67;25.00;;;;;22.75;65.42;101365.69;5014329;28;45691;-66
2022/07/23 04:08:37;;;;;;;;;26.00;24.33;;;;;22.67;65.29;101354.25;5015404;28;45262;-65
2022/07/23 04:11:03;;;;;;;;;30.67;29.33;;;;;22.64;64.79;101357.38;5015727;28;45490;-66
2022/07/23 04:13:28;;;;;;;;;27.00;24.33;;;;;22.75;65.20;101373.81;5016070;28;45608;-66
2022/07/23 04:15:54;;;;;;;;;27.33;23.67;;;;;22.26;64.79;101302.94;5018985;28;45307;-65
2022/07/23 04:18:21;;;;;;;;;27.67;26.00;;;;;22.72;64.35;101366.13;5017763;28;45362;-66
2022/07/23 04:20:47;;;;;;;;;27.33;24.67;;;;;22.73;64.34;101375.06;5018888;28;45414;-66
2022/07/23 04:23:12;;;;;;;;;35.33;29.67;;;;;22.70;64.51;101376.34;5017344;28;47699;-66
2022/07/23 04:25:38;;;;;;;;;30.33;28.67;;;;;22.72;64.20;101385.09;5018859;28;45496;-65
2022/07/23 04:28:03;;;;;;;;;28.67;26.67;;;;;22.71;63.67;101378.00;5018973;28;45309;-65
2022/07/23 04:30:28;;;;;;;;;23.00;22.33;;;;;22.68;64.07;101381.13;5019208;28;45533;-65
2022/07/23 04:32:54;;;;;;;;;26.67;25.67;;;;;22.57;63.56;101362.75;5018417;28;47048;-65
2022/07/23 04:35:19;;;;;;;;;25.33;20.67;;;;;22.56;63.94;101357.56;5018737;28;45229;-65
2022/07/23 04:37:45;;;;;;;;;26.33;21.67;;;;;22.61;63.86;101369.44;5018478;28;45324;-66
2022/07/23 04:40:12;;;;;;;;;27.00;25.00;;;;;22.66;63.97;101388.63;5018945;28;45313;-66
2022/07/23 04:42:37;;;;;;;;;24.00;22.00;;;;;22.56;63.41;101373.81;5018263;28;45820;-65
2022/07/23 04:45:03;;;;;;;;;25.33;24.33;;;;;22.02;63.57;101291.63;5018116;28;45464;-65
2022/07/23 04:47:30;;;;;;;;;25.00;22.33;;;;;22.64;63.43;101388.03;5018352;28;45288;-65
2022/07/23 04:49:56;;;;;;;;;24.67;23.33;;;;;22.62;63.01;101378.41;5018641;28;45446;-65
2022/07/23 04:52:21;;;;;;;;;18.33;18.33;;;;;22.25;63.16;101322.94;5018038;28;45567;-64
2022/07/23 04:54:46;;;;;;;;;24.00;19.00;;;;;22.69;62.80;101390.94;5016865;28;45254;-67
2022/07/23 04:57:12;;;;;;;;;22.00;20.00;;;;;22.63;62.51;101380.94;5018422;28;45296;-65
2022/07/23 04:59:37;;;;;;;;;19.33;19.33;;;;;22.67;62.90;101386.75;5018761;28;45308;-66
2022/07/23 05:02:02;;;;;;;;;25.33;20.67;;;;;22.69;62.28;101396.34;5018115;28;45558;-66
2022/07/23 05:04:28;;;;;;;;;18.00;18.00;;;;;22.73;62.38;101392.19;5018118;28;45252;-65
2022/07/23 05:06:53;;;;;;;;;19.33;17.67;;;;;22.76;62.56;101397.19;5016860;28;45292;-66
2022/07/23 05:09:18;;;;;;;;;21.33;19.33;;;;;22.79;62.51;101393.22;5017098;28;45472;-66
2022/07/23 05:11:44;;;;;;;;;22.00;20.00;;;;;22.75;62.31;101394.69;5018288;28;46017;-65
2022/07/23 05:14:12;;;;;;;;;22.33;18.67;;;;;22.73;62.54;101377.78;5018177;28;45209;-65
2022/07/23 05:16:37;;;;;;;;;21.00;20.67;;;;;22.93;62.54;101402.22;5018328;28;45422;-66
2022/07/23 05:19:02;;;;;;;;;20.67;17.33;;;;;22.99;62.25;101406.78;5018176;28;45383;-66
2022/07/23 05:21:28;;;;;;;;;22.67;22.33;;;;;22.97;61.87;101387.19;5018029;28;45920;-66
2022/07/23 05:23:53;;;;;;;;;21.67;19.00;;;;;23.09;61.33;101390.94;5018099;28;45332;-65
2022/07/23 05:26:18;;;;;;;;;22.00;20.00;;;;;23.02;61.57;101365.69;5017653;28;45514;-65
2022/07/23 05:28:44;;;;;;;;;22.00;20.67;;;;;23.21;60.92;101404.69;5016923;28;45359;-66
2022/07/23 05:31:09;;;;;;;;;26.00;23.67;;;;;23.16;61.33;101394.47;5017727;28;46913;-66
2022/07/23 05:33:34;;;;;;;;;22.67;22.33;;;;;23.16;60.92;101391.75;5018049;28;45435;-66
2022/07/23 05:36:02;;;;;;;;;20.67;19.67;;;;;22.75;61.07;101335.03;5017903;28;45226;-66
2022/07/23 05:38:28;;;;;;;;;25.67;23.00;;;;;22.98;61.52;101364.44;5018323;28;45230;-65
2022/07/23 05:40:53;;;;;;;;;23.67;21.33;;;;;23.19;60.83;101404.91;5016592;28;47563;-66
2022/07/23 05:43:18;;;;;;;;;23.33;21.00;;;;;23.00;61.06;101375.91;5017888;28;45175;-65
2022/07/23 05:45:44;;;;;;;;;28.67;25.00;;;;;23.09;60.85;101381.97;5033025;28;45210;-66
2022/07/23 05:48:09;;;;;;;;;18.67;18.67;;;;;23.23;60.84;101392.59;5017869;28;45391;-66
2022/07/23 05:50:34;;;;;;;;;16.33;16.00;;;;;23.34;60.89;101394.66;5017818;28;45309;-65
2022/07/23 05:53:00;;;;;;;;;27.67;26.00;;;;;23.30;60.41;101388.00;5017641;28;48400;-65
2022/07/23 05:55:25;;;;;;;;;21.33;21.33;;;;;23.26;60.65;101386.75;5017686;28;45260;-66
2022/07/23 05:57:51;;;;;;;;;26.67;25.67;;;;;23.30;60.86;101379.84;5016133;28;45472;-65
2022/07/23 06:00:16;;;;;;;;;24.67;22.00;;;;;23.41;60.26;101407.34;5017317;28;46050;-65
2022/07/23 06:02:41;;;;;;;;;24.33;23.00;;;;;23.49;60.32;101416.13;5017621;28;45303;-65
2022/07/23 06:05:07;;;;;;;;;30.00;29.00;;;;;23.35;60.47;101392.78;5017304;28;45426;-66
2022/07/23 06:07:34;;;;;;;;;25.33;25.00;;;;;22.98;60.44;101345.47;5017502;28;45445;-65
2022/07/23 06:09:59;;;;;;;;;23.67;22.67;;;;;23.41;60.43;101415.50;5017020;28;47747;-65
2022/07/23 06:12:25;;;;;;;;;29.00;27.67;;;;;23.37;61.10;101405.06;5015627;28;45398;-66
2022/07/23 06:14:52;;;;;;;;;33.00;30.67;;;;;23.38;61.10;101400.47;5017304;28;45366;-66
2022/07/23 06:17:17;;;;;;;;;27.00;27.00;;;;;23.41;60.99;101391.91;5017096;28;45348;-66
2022/07/23 06:19:43;;;;;;;;;26.67;25.67;;;;;23.62;60.92;101423.41;5016826;28;45488;-66
2022/07/23 06:22:08;;;;;;;;;32.67;31.00;;;;;23.52;60.52;101391.25;5016941;28;45351;-66
2022/07/23 06:24:33;;;;;;;;;30.00;28.67;;;;;23.65;60.33;101412.16;5016949;28;45323;-66
2022/07/23 06:26:59;;;;;;;;;34.67;33.00;;;;;23.78;60.56;101431.09;5017223;28;45264;-66
2022/07/23 06:29:24;;;;;;;;;39.67;33.33;;;;;23.78;60.23;101428.38;5016916;28;46440;-66
2022/07/23 06:31:50;;;;;;;;;39.00;33.00;;;;;23.83;60.38;101431.31;5017066;28;45146;-66
2022/07/23 06:34:15;;;;;;;;;36.00;33.67;;;;;23.75;60.33;101408.97;5017450;28;45367;-66
2022/07/23 06:36:40;;;;;;;;;44.00;34.67;;;;;23.82;60.41;101440.47;5015348;28;45227;-66
2022/07/23 06:39:06;;;;;;;;;42.33;34.67;;;;;23.79;60.67;101446.34;5016301;28;46619;-66
2022/07/23 06:41:31;;;;;;;;;41.00;35.33;;;;;23.68;60.58;101436.16;5016994;28;45409;-66
2022/07/23 06:43:56;;;;;;;;;35.00;32.33;;;;;23.56;60.66;101430.53;5016813;28;45176;-66
2022/07/23 06:46:22;;;;;;;;;42.67;34.33;;;;;23.15;61.33;101390.09;5016903;28;45433;-65
2022/07/23 06:48:47;;;;;;;;;45.67;35.33;;;;;23.43;61.46;101440.56;5016323;28;45350;-65
2022/07/23 06:51:13;;;;;;;;;38.33;33.33;;;;;23.06;61.46;101375.09;5016963;28;45400;-65
2022/07/23 06:53:38;;;;;;;;;45.33;37.33;;;;;23.50;61.55;101449.53;5015395;28;45321;-67
2022/07/23 06:56:04;;;;;;;;;39.00;34.67;;;;;23.54;61.63;101440.75;5017344;28;45383;-66
2022/07/23 06:58:29;;;;;;;;;47.00;38.33;;;;;23.60;61.20;101441.78;5016452;28;46327;-66
2022/07/23 07:00:56;;;;;;;;;50.67;37.67;;;;;23.61;61.51;101443.47;5015159;28;45511;-66
2022/07/23 07:03:22;;;;;;;;;45.00;36.67;;;;;23.57;61.53;101436.78;5015399;28;45432;-66
2022/07/23 07:05:47;;;;;;;;;41.33;34.67;;;;;23.69;61.50;101456.81;5016590;28;45538;-65
2022/07/23 07:08:12;;;;;;;;;44.67;36.33;;;;;23.67;61.45;101454.31;5016510;28;45601;-65
2022/07/23 07:10:38;;;;;;;;;40.67;35.33;;;;;23.29;61.05;101390.91;5016582;28;45201;-65
2022/07/23 07:13:03;;;;;;;;;47.67;37.00;;;;;23.76;61.14;101468.47;5016749;28;45444;-66
2022/07/23 07:15:28;;;;;;;;;44.67;35.67;;;;;23.76;61.17;101463.06;5017037;28;45345;-66
2022/07/23 07:17:54;;;;;;;;;51.33;41.67;;;;;23.75;61.42;101471.41;5016412;28;45494;-66
2022/07/23 07:20:19;;;;;;;;;44.00;37.67;;;;;23.67;61.20;101465.19;5016381;28;45525;-66
2022/07/23 07:22:45;;;;;;;;;51.67;42.00;;;;;23.68;61.06;101455.16;5016594;28;45276;-65
2022/07/23 07:25:10;;;;;;;;;49.33;41.00;;;;;23.62;61.02;101469.56;5016669;28;45290;-68
2022/07/23 07:27:36;;;;;;;;;48.00;39.67;;;;;23.70;61.43;101463.91;5016328;28;46115;-66
2022/07/23 07:30:03;;;;;;;;;51.00;39.00;;;;;23.80;61.25;101494.16;5016711;28;45335;-66
2022/07/23 07:32:29;;;;;;;;;46.00;37.33;;;;;23.85;61.04;101483.50;5031851;28;45496;-66
2022/07/23 07:34:54;;;;;;;;;46.67;36.67;;;;;23.90;60.73;101485.59;5016544;28;45291;-65
2022/07/23 07:37:20;;;;;;;;;55.00;45.00;;;;;23.78;60.79;101463.66;5016195;28;46841;-67
2022/07/23 07:39:45;;;;;;;;;48.33;40.33;;;;;23.94;60.29;101484.94;5016509;28;45234;-65
2022/07/23 07:42:10;;;;;;;;;53.67;43.67;;;;;24.02;59.92;101483.03;5031555;28;45247;-66
2022/07/23 07:44:36;;;;;;;;;40.67;34.67;;;;;24.11;60.32;101468.16;5015296;28;45465;-66
2022/07/23 07:47:01;;;;;;;;;52.00;40.67;;;;;24.32;60.02;101495.06;5014583;28;47567;-66
2022/07/23 07:49:27;;;;;;;;;49.33;41.33;;;;;24.38;59.29;101488.75;5016919;28;45625;-67
2022/07/23 07:51:52;;;;;;;;;50.00;41.00;;;;;24.32;59.25;101462.44;5019591;28;45243;-65
2022/07/23 07:54:17;;;;;;;;;51.00;41.00;;;;;24.51;59.39;101487.84;5019614;28;45205;-66
2022/07/23 07:56:43;;;;;;;;;48.67;39.00;;;;;24.64;58.48;101503.25;5019750;28;46439;-66
2022/07/23 07:59:08;;;;;;;;;48.33;39.00;;;;;24.72;58.37;101489.41;5019262;28;45256;-66
2022/07/23 08:01:34;;;;;;;;;53.00;41.33;;;;;24.94;57.05;101503.47;5019528;28;45895;-66
2022/07/23 08:03:59;;;;;;;;;47.00;38.00;;;;;25.14;56.69;101499.56;5018358;28;45551;-66
2022/07/23 08:06:24;;;;;;;;;43.00;36.00;;;;;25.40;56.31;101494.94;5019057;28;46616;-67
2022/07/23 08:08:50;;;;;;;;;41.67;35.67;;;;;25.78;55.20;101492.91;5019393;28;45222;-66
2022/07/23 08:11:16;;;;;;;;;47.67;37.33;;;;;26.21;54.78;101500.16;5019509;28;45188;-67
2022/07/23 08:13:41;;;;;;;;;37.00;33.00;;;;;26.70;53.25;101506.47;5020025;28;45348;-68
2022/07/23 08:16:06;;;;;;;;;44.33;36.67;;;;;26.70;52.15;101481.91;5019055;28;46218;-67
2022/07/23 08:18:32;;;;;;;;;43.33;36.00;;;;;27.00;51.88;101505.59;5019092;28;45595;-68
2022/07/23 08:20:57;;;;;;;;;37.33;34.00;;;;;26.57;51.45;101428.38;5017803;28;45593;-65
2022/07/23 08:23:23;;;;;;;;;40.67;34.00;;;;;27.05;51.99;101506.59;5019041;28;45686;-67
2022/07/23 08:25:48;;;;;;;;;47.67;38.67;;;;;26.91;51.20;101495.00;5018849;28;45600;-66
2022/07/23 08:28:15;;;;;;;;;48.33;37.00;;;;;27.04;51.34;101512.28;5034724;28;45513;-67
2022/07/23 08:30:43;;;;;;;;;47.00;36.67;;;;;26.90;51.22;101493.34;5017829;28;45334;-67
2022/07/23 08:33:14;;;;;;;;;44.67;37.00;;;;;26.99;51.35;101512.94;5019158;28;45367;-66
2022/07/23 08:35:44;;;;;;;;;43.67;37.00;;;;;27.03;51.66;101518.78;5017406;28;47394;-66
2022/07/23 08:38:11;;;;;;;;;44.67;37.00;;;;;27.01;51.16;101521.75;5018663;28;45223;-65
2022/07/23 08:40:40;;;;;;;;;45.00;34.67;;;;;27.00;51.22;101532.91;5018885;28;45257;-67
2022/07/23 08:43:07;;;;;;;;;41.33;34.33;;;;;26.94;51.29;101523.72;5017649;28;45543;-68
2022/07/23 08:45:46;;;;;;;;;47.00;36.33;;;;;26.90;51.57;101526.09;5018695;28;45645;-67
2022/07/23 08:48:19;;;;;;;;;47.33;36.33;;;;;26.63;52.03;101530.25;5018486;28;45384;-67
2022/07/23 08:50:47;;;;;;;;;44.33;38.33;;;;;26.58;51.80;101532.84;5018764;28;45332;-66
2022/07/23 08:53:13;;;;;;;;;42.33;35.33;;;;;26.45;52.21;101522.13;5034029;28;45584;-67
2022/07/23 08:55:39;;;;;;;;;38.33;33.33;;;;;26.40;52.58;101524.69;5018784;28;45641;-66
2022/07/23 08:58:06;;;;;;;;;42.67;35.33;;;;;26.57;52.59;101536.63;5018343;28;45339;-67
2022/07/23 09:00:32;;;;;;;;;45.67;34.67;;;;;26.29;52.29;101494.41;5017561;28;45486;-67
2022/07/23 09:02:57;;;;;;;;;52.00;41.67;;;;;26.56;52.31;101540.44;5018770;28;45387;-67
2022/07/23 09:05:23;;;;;;;;;41.00;35.33;;;;;26.56;52.46;101545.88;5033848;28;47493;-67
2022/07/23 09:08:05;;;;;;;;;46.67;40.00;;;;;26.47;52.18;101525.47;5033628;28;45397;-65
2022/07/23 09:10:45;;;;;;;;;39.33;33.00;;;;;26.40;52.41;101530.16;5018800;28;45435;-66
2022/07/23 09:13:31;;;;;;;;;47.00;36.33;;;;;26.38;52.30;101542.13;5018343;28;45221;-66
2022/07/23 09:16:17;;;;;;;;;46.67;36.67;;;;;26.43;52.47;101546.03;5018194;28;46379;-65
2022/07/23 09:18:52;;;;;;;;;36.67;32.33;;;;;26.13;52.20;101475.94;5018159;28;45456;-66
2022/07/23 09:21:35;;;;;;;;;40.67;34.67;;;;;26.51;52.23;101524.75;5018446;28;45178;-66
2022/07/23 09:24:04;;;;;;;;;44.00;37.00;;;;;26.65;51.44;101528.16;5018524;28;45529;-66
2022/07/23 09:26:37;;;;;;;;;42.33;34.67;;;;;26.77;51.33;101531.72;5018194;28;46633;-66
2022/07/23 09:29:04;;;;;;;;;40.33;35.67;;;;;27.01;50.82;101540.00;5018098;28;45245;-66
2022/07/23 09:31:53;;;;;;;;;39.67;34.67;;;;;27.69;49.00;101536.81;5033602;28;45360;-67
2022/07/23 09:34:32;;;;;;;;;37.67;34.33;;;;;28.17;47.46;101540.06;5017040;28;45610;-67
2022/07/23 09:37:08;;;;;;;;;38.00;33.67;;;;;28.52;46.81;101539.16;5017834;28;45682;-66
2022/07/23 09:39:34;;;;;;;;;37.00;33.00;;;;;28.65;46.30;101524.38;5033067;28;45716;-65
2022/07/23 09:42:18;;;;;;;;;33.33;29.33;;;;;28.33;45.62;101452.91;5017682;28;45287;-68
2022/07/23 09:44:46;;;;;;;;;41.33;32.67;;;;;28.88;44.97;101515.22;5018089;28;45609;-67
2022/07/23 09:47:12;;;;;;;;;38.33;34.67;;;;;30.33;42.82;101527.84;5017572;28;46544;-67
2022/07/23 09:49:37;;;;;;;;;32.00;31.33;;;;;32.12;39.70;101524.69;5017690;28;45522;-67
2022/07/23 09:52:03;;;;;;;;;39.33;33.67;;;;;33.67;36.56;101520.75;5017899;28;45178;-66
2022/07/23 09:54:37;;;;;;;;;38.67;32.33;;;;;34.74;34.05;101502.63;5018035;28;45579;-67
2022/07/23 09:57:06;;;;;;;;;32.67;30.00;;;;;34.82;33.51;101539.00;5017336;28;46231;-67
2022/07/23 09:59:34;;;;;;;;;36.67;33.00;;;;;34.60;33.58;101529.22;5016115;28;45787;-66
2022/07/23 10:02:00;;;;;;;;;38.33;33.67;;;;;34.63;33.50;101511.25;5017757;28;45312;-68
2022/07/23 10:04:29;;;;;;;;;34.33;30.67;;;;;34.26;34.17;101518.09;5017717;28;45321;-67
2022/07/23 10:07:07;;;;;;;;;35.67;30.00;;;;;34.56;34.48;101519.03;5017546;28;46538;-67
2022/07/23 10:09:37;;;;;;;;;28.67;27.00;;;;;34.97;33.17;101508.53;5032990;28;45349;-66
2022/07/23 10:12:15;;;;;;;;;30.33;30.33;;;;;35.19;32.64;101508.91;5017584;28;45445;-67
2022/07/23 10:14:41;;;;;;;;;33.00;30.67;;;;;34.97;32.70;101511.31;5017562;28;45244;-68
2022/07/23 10:17:07;;;;;;;;;34.00;30.67;;;;;34.51;32.96;101511.63;5032518;28;48562;-68
2022/07/23 10:19:33;;;;;;;;;33.00;31.67;;;;;34.25;33.64;101518.38;5017217;28;45359;-67
2022/07/23 10:22:03;;;;;;;;;28.67;28.33;;;;;33.83;34.56;101522.34;5017429;28;45422;-67
2022/07/23 10:24:53;;;;;;;;;33.67;31.33;;;;;33.49;35.10;101524.94;5033010;28;45261;-67
2022/07/23 10:28:10;;;;;;;;;27.00;25.00;;;;;33.27;35.50;101525.22;5017089;28;46282;-67
2022/07/23 10:30:44;;;;;;;;;37.33;33.00;;;;;32.96;35.71;101519.69;5004549;28;45365;-67
2022/07/23 10:33:24;;;;;;;;;36.00;33.00;;;;;32.65;36.36;101513.31;5017405;28;45336;-66
2022/07/23 10:35:58;;;;;;;;;34.33;32.67;;;;;32.24;37.30;101508.78;5017285;28;45518;-66
2022/07/23 10:38:33;;;;;;;;;30.67;30.67;;;;;32.12;37.64;101520.00;5016715;28;45595;-68
2022/07/23 10:41:03;;;;;;;;;31.67;30.67;;;;;32.10;37.76;101519.44;5017011;28;45249;-66
2022/07/23 10:43:30;;;;;;;;;33.33;30.33;;;;;32.04;37.80;101512.28;5017181;28;45462;-67
2022/07/23 10:45:56;;;;;;;;;35.00;31.67;;;;;32.08;37.30;101516.97;5015854;28;45382;-68
2022/07/23 10:48:29;;;;;;;;;34.67;29.67;;;;;31.97;38.21;101541.94;5016458;28;46197;-67
2022/07/23 10:51:15;;;;;;;;;27.33;27.00;;;;;31.75;38.24;101542.09;5032182;28;46286;-67
2022/07/23 10:53:58;;;;;;;;;34.67;31.33;;;;;31.65;38.38;101545.59;5016963;28;45370;-67
2022/07/23 10:56:54;;;;;;;;;31.67;29.67;;;;;31.61;38.56;101538.09;5017121;28;45581;-68
2022/07/23 10:59:20;;;;;;;;;32.00;31.00;;;;;31.38;38.54;101501.69;5016704;28;45778;-69
2022/07/23 11:01:45;;;;;;;;;35.00;31.67;;;;;31.39;39.12;101521.75;5016769;28;45393;-68
2022/07/23 11:04:12;;;;;;;;;30.67;28.00;;;;;31.40;38.81;101542.63;5016952;28;45379;-67
2022/07/23 11:06:50;;;;;;;;;32.67;31.00;;;;;31.32;39.76;101548.63;5017059;28;45304;-67
2022/07/23 11:09:29;;;;;;;;;32.00;30.33;;;;;31.21;39.67;101566.94;5016402;28;46245;-67